createdAt,value
2019-04-27T00:04:16.182Z,13.80
2019-04-27T00:09:11.620Z,13.70
2019-04-27T00:13:59.810Z,13.70
2019-04-27T00:18:58.081Z,14.20
2019-04-27T00:23:47.811Z,14.20
2019-04-27T00:28:38.728Z,13.90
2019-04-27T00:33:29.906Z,13.60
2019-04-27T00:38:23.747Z,13.40
2019-04-27T00:43:14.650Z,13.20
2019-04-27T00:48:05.575Z,13.30
2019-04-27T00:52:56.499Z,13.80
2019-04-27T00:57:49.283Z,13.80
2019-04-27T01:02:40.909Z,13.30
2019-04-27T01:07:33.417Z,13.10
2019-04-27T01:12:24.227Z,13.10
2019-04-27T01:17:15.178Z,12.90
2019-04-27T01:22:06.100Z,12.90
2019-04-27T01:27:00.130Z,13.50
2019-04-27T01:31:50.996Z,13.60
2019-04-27T01:36:42.203Z,13.30
2019-04-27T01:41:33.105Z,13.10
2019-04-27T01:46:24.079Z,12.80
2019-04-27T01:51:14.970Z,12.70
2019-04-27T01:56:05.910Z,12.90
2019-04-27T02:01:00.753Z,13.40
2019-04-27T02:05:52.466Z,13.00
2019-04-27T02:10:43.362Z,13.00
2019-04-27T02:15:34.268Z,12.80
2019-04-27T02:20:25.196Z,12.60
2019-04-27T02:25:16.120Z,12.50
2019-04-27T02:30:11.769Z,13.00
2019-04-27T02:35:02.083Z,13.10
2019-04-27T02:39:53.102Z,12.90
2019-04-27T02:44:44.007Z,12.60
2019-04-27T02:49:34.933Z,12.40
2019-04-27T02:54:25.844Z,12.30
2019-04-27T02:59:16.766Z,12.40
2019-04-27T03:04:09.835Z,12.90
2019-04-27T03:09:00.324Z,12.80
2019-04-27T03:14:05.669Z,12.60
2019-04-27T03:19:14.763Z,12.40
2019-04-27T03:23:53.784Z,12.20
2019-04-27T03:28:44.811Z,12.00
2019-04-27T03:33:35.736Z,12.40
2019-04-27T03:38:26.743Z,12.80
2019-04-27T03:43:20.050Z,12.60
2019-04-27T03:48:10.369Z,12.40
2019-04-27T03:53:02.411Z,12.20
2019-04-27T03:58:00.409Z,12.00
2019-04-27T04:02:51.280Z,12.00
2019-04-27T04:07:42.293Z,12.40
2019-04-27T04:12:40.137Z,12.60
2019-04-27T04:17:31.277Z,12.20
2019-04-27T04:22:22.816Z,12.00
2019-04-27T04:27:13.702Z,12.00
2019-04-27T04:32:04.670Z,11.80
2019-04-27T04:36:55.683Z,12.00
2019-04-27T04:41:46.616Z,12.50
2019-04-27T04:46:41.428Z,12.50
2019-04-27T04:51:33.156Z,12.10
2019-04-27T04:56:24.064Z,12.10
2019-04-27T05:01:15.000Z,12.00
2019-04-27T05:06:05.899Z,11.80
2019-04-27T05:10:56.834Z,12.10
2019-04-27T05:15:48.777Z,12.60
2019-04-27T05:20:39.754Z,12.60
2019-04-27T05:25:31.150Z,12.20
2019-04-27T05:30:22.792Z,12.00
2019-04-27T05:35:14.435Z,11.90
2019-04-27T05:40:06.079Z,12.20
2019-04-27T05:44:59.046Z,12.20
2019-04-27T05:49:48.878Z,12.80
2019-04-27T05:54:39.776Z,12.70
2019-04-27T05:59:30.670Z,12.50
2019-04-27T06:04:22.303Z,12.30
2019-04-27T06:09:13.951Z,12.20
2019-04-27T06:14:04.845Z,12.20
2019-04-27T06:18:56.522Z,13.00
2019-04-27T06:23:48.779Z,13.00
2019-04-27T06:28:39.763Z,13.00
2019-04-27T06:33:34.072Z,12.90
2019-04-27T06:38:20.983Z,12.60
2019-04-27T06:43:12.612Z,12.70
2019-04-27T06:48:04.251Z,13.20
2019-04-27T06:52:55.884Z,13.60
2019-04-27T06:57:49.077Z,13.50
2019-04-27T07:02:39.264Z,13.50
2019-04-27T07:07:29.618Z,13.40
2019-04-27T07:12:20.299Z,13.30
2019-04-27T07:17:11.199Z,13.20
2019-04-27T07:22:02.843Z,14.20
2019-04-27T07:26:53.766Z,14.10
2019-04-27T07:31:44.687Z,14.30
2019-04-27T07:36:35.603Z,14.20
2019-04-27T07:41:26.753Z,14.00
2019-04-27T07:46:18.516Z,13.90
2019-04-27T07:51:09.031Z,13.80
2019-04-27T07:55:59.500Z,14.20
2019-04-27T08:00:51.148Z,14.70
2019-04-27T08:05:41.355Z,14.80
2019-04-27T08:10:32.268Z,14.70
2019-04-27T08:15:23.170Z,14.70
2019-04-27T08:20:14.080Z,14.60
2019-04-27T08:25:04.995Z,14.90
2019-04-27T08:29:58.654Z,15.60
2019-04-27T08:34:49.422Z,15.80
2019-04-27T08:39:39.670Z,15.80
2019-04-27T08:44:31.803Z,15.60
2019-04-27T08:49:21.404Z,15.50
2019-04-27T08:54:12.297Z,15.50
2019-04-27T08:59:03.205Z,15.80
2019-04-27T09:03:54.128Z,16.40
2019-04-27T09:08:45.939Z,16.70
2019-04-27T09:13:48.744Z,16.60
2019-04-27T09:18:38.982Z,16.50
2019-04-27T09:23:29.706Z,16.50
2019-04-27T09:28:22.077Z,17.00
2019-04-27T09:33:13.708Z,17.60
2019-04-27T09:38:07.031Z,17.60
2019-04-27T09:42:57.272Z,17.60
2019-04-27T09:47:47.363Z,17.50
2019-04-27T09:52:38.434Z,17.40
2019-04-27T09:57:29.324Z,17.40
2019-04-27T10:02:20.375Z,17.70
2019-04-27T10:07:11.292Z,18.40
2019-04-27T10:12:02.211Z,18.50
2019-04-27T10:16:53.478Z,18.40
2019-04-27T10:21:44.387Z,18.40
2019-04-27T10:26:36.219Z,18.40
2019-04-27T10:31:26.289Z,18.60
2019-04-27T10:36:17.207Z,19.20
2019-04-27T10:41:08.186Z,19.40
2019-04-27T10:45:59.111Z,19.40
2019-04-27T10:50:50.015Z,19.30
2019-04-27T10:55:41.164Z,19.30
2019-04-27T11:00:32.806Z,20.00
2019-04-27T11:05:31.186Z,20.30
2019-04-27T11:10:22.023Z,20.40
2019-04-27T11:15:13.679Z,20.40
2019-04-27T11:20:05.485Z,20.40
2019-04-27T11:24:56.494Z,20.60
2019-04-27T11:29:48.179Z,21.50
2019-04-27T11:34:41.937Z,21.50
2019-04-27T11:39:33.573Z,22.10
2019-04-27T11:44:25.765Z,22.20
2019-04-27T11:49:16.138Z,22.10
2019-04-27T11:54:07.067Z,22.20
2019-04-27T11:58:58.008Z,22.30
2019-04-27T12:03:48.901Z,22.70
2019-04-27T12:08:39.864Z,23.00
2019-04-27T12:13:30.835Z,22.90
2019-04-27T12:18:21.804Z,22.60
2019-04-27T12:23:12.677Z,22.20
2019-04-27T12:28:03.581Z,22.00
2019-04-27T12:32:55.827Z,22.40
2019-04-27T12:37:46.244Z,22.40
2019-04-27T12:42:45.055Z,21.70
2019-04-27T12:47:36.570Z,21.70
2019-04-27T12:52:27.711Z,21.40
2019-04-27T12:57:26.334Z,21.30
2019-04-27T13:02:16.666Z,21.60
2019-04-27T13:07:07.711Z,21.60
2019-04-27T13:11:59.372Z,21.00
2019-04-27T13:16:50.283Z,21.00
2019-04-27T13:21:41.933Z,20.80
2019-04-27T13:26:32.828Z,20.80
2019-04-27T13:31:25.777Z,21.20
2019-04-27T13:36:16.694Z,21.20
2019-04-27T13:41:06.426Z,21.00
2019-04-27T13:46:01.202Z,20.80
2019-04-27T13:50:52.109Z,20.60
2019-04-27T13:55:43.027Z,20.70
2019-04-27T14:00:34.829Z,21.00
2019-04-27T14:05:24.867Z,21.10
2019-04-27T14:10:15.771Z,20.90
2019-04-27T14:15:08.523Z,20.70
2019-04-27T14:19:59.403Z,20.50
2019-04-27T14:24:49.300Z,21.30
2019-04-27T14:29:40.268Z,21.20
2019-04-27T14:34:31.171Z,21.60
2019-04-27T14:39:22.068Z,21.70
2019-04-27T14:44:13.092Z,21.80
2019-04-27T14:49:03.996Z,21.90
2019-04-27T14:53:54.907Z,22.10
2019-04-27T14:58:45.807Z,22.60
2019-04-27T15:03:37.459Z,22.50
2019-04-27T15:08:28.363Z,22.50
2019-04-27T15:13:20.036Z,22.00
2019-04-27T15:18:10.928Z,21.90
2019-04-27T15:23:01.846Z,22.00
2019-04-27T15:27:53.519Z,22.20
2019-04-27T15:32:47.931Z,22.20
2019-04-27T15:37:50.210Z,21.80
2019-04-27T15:42:49.612Z,21.40
2019-04-27T15:47:33.668Z,21.00
2019-04-27T15:52:25.598Z,21.10
2019-04-27T15:57:18.603Z,21.20
2019-04-27T16:02:11.809Z,21.20
2019-04-27T16:06:58.271Z,20.80
2019-04-27T16:11:57.622Z,20.40
2019-04-27T16:16:40.425Z,20.00
2019-04-27T16:21:31.639Z,20.10
2019-04-27T16:26:21.540Z,20.30
2019-04-27T16:31:12.432Z,20.20
2019-04-27T16:36:06.975Z,19.90
2019-04-27T16:40:54.647Z,19.50
2019-04-27T16:45:45.307Z,19.20
2019-04-27T16:50:36.212Z,19.30
2019-04-27T16:55:29.631Z,19.70
2019-04-27T17:00:18.445Z,19.70
2019-04-27T17:05:08.941Z,19.40
2019-04-27T17:09:59.827Z,19.10
2019-04-27T17:14:58.093Z,18.80
2019-04-27T17:19:49.962Z,18.90
2019-04-27T17:24:43.774Z,19.30
2019-04-27T17:29:29.788Z,19.30
2019-04-27T17:34:25.387Z,18.60
2019-04-27T17:39:12.372Z,18.70
2019-04-27T17:44:03.256Z,18.40
2019-04-27T17:48:54.903Z,18.70
2019-04-27T17:53:49.708Z,18.80
2019-04-27T17:58:39.843Z,18.80
2019-04-27T18:03:28.541Z,18.50
2019-04-27T18:08:24.604Z,18.10
2019-04-27T18:13:11.049Z,17.70
2019-04-27T18:18:01.959Z,17.70
2019-04-27T18:22:52.849Z,18.00
2019-04-27T18:27:49.635Z,18.20
2019-04-27T18:32:40.422Z,17.90
2019-04-27T18:37:29.463Z,17.50
2019-04-27T18:42:23.207Z,17.20
2019-04-27T18:47:11.279Z,17.00
2019-04-27T18:52:04.621Z,17.20
2019-04-27T18:57:02.062Z,17.50
2019-04-27T19:01:45.020Z,17.30
2019-04-27T19:06:35.924Z,17.00
2019-04-27T19:11:26.827Z,16.60
2019-04-27T19:16:18.739Z,16.30
2019-04-27T19:21:08.843Z,16.40
2019-04-27T19:26:02.611Z,16.70
2019-04-27T19:30:57.638Z,16.60
2019-04-27T19:35:49.130Z,15.90
2019-04-27T19:40:40.785Z,15.50
2019-04-27T19:45:31.688Z,15.50
2019-04-27T19:50:23.397Z,15.90
2019-04-27T19:55:14.297Z,15.90
2019-04-27T20:00:05.197Z,15.90
2019-04-27T20:04:56.088Z,15.60
2019-04-27T20:09:50.558Z,14.90
2019-04-27T20:14:47.659Z,14.80
2019-04-27T20:19:38.630Z,14.70
2019-04-27T20:24:31.398Z,15.00
2019-04-27T20:29:21.781Z,15.20
2019-04-27T20:34:12.195Z,14.60
2019-04-27T20:39:05.762Z,14.60
2019-04-27T20:43:54.111Z,14.20
2019-04-27T20:48:45.037Z,14.00
2019-04-27T20:53:51.640Z,14.10
2019-04-27T20:58:41.149Z,14.50
2019-04-27T21:03:32.717Z,14.30
2019-04-27T21:08:22.678Z,13.90
2019-04-27T21:13:13.580Z,13.60
2019-04-27T21:18:04.465Z,13.30
2019-04-27T21:22:55.380Z,13.10
2019-04-27T21:27:46.291Z,13.40
2019-04-27T21:32:37.207Z,13.70
2019-04-27T21:37:28.105Z,13.50
2019-04-27T21:42:19.108Z,13.10
2019-04-27T21:47:11.120Z,12.80
2019-04-27T21:52:01.402Z,12.60
2019-04-27T21:56:52.624Z,13.00
2019-04-27T22:01:46.568Z,13.00
2019-04-27T22:06:37.469Z,13.00
2019-04-27T22:11:28.378Z,12.70
2019-04-27T22:16:21.106Z,12.40
2019-04-27T22:21:11.446Z,12.10
2019-04-27T22:26:01.367Z,11.90
2019-04-27T22:30:52.055Z,11.90
2019-04-27T22:35:42.971Z,12.30
2019-04-27T22:40:33.864Z,12.40
2019-04-27T22:45:24.777Z,12.20
2019-04-27T22:50:16.417Z,11.70
2019-04-27T22:55:07.375Z,11.70
2019-04-27T22:59:58.295Z,11.50
2019-04-27T23:04:54.280Z,11.70
2019-04-27T23:09:46.019Z,12.10
2019-04-27T23:14:37.654Z,11.90
2019-04-27T23:19:29.304Z,11.60
2019-04-27T23:24:20.917Z,11.60
2019-04-27T23:29:15.698Z,11.40
2019-04-27T23:34:03.389Z,11.60
2019-04-27T23:38:54.291Z,11.50
2019-04-27T23:43:45.948Z,12.00
2019-04-27T23:48:36.849Z,12.00
2019-04-27T23:53:28.491Z,11.60
2019-04-27T23:58:20.142Z,11.40
